SKSP/ADZ METAR and TAF weather

Enter ICAO airport designator
Station Type Date Time Source
SKSP METAR 2019/08/22 07:00 UTC NOAA

SKSP 220700Z 06012KT 9999 FEW017 28/25 A2990


Station Type Date Time Source
SKSP Decoded METAR 2019/08/22 07:00 UTC NOAA

Station name not available
Aug 22, 2019 - 03:00 AM EDT / 2019.08.22 0700 UTC
Wind: from the ENE (060 degrees) at 14 MPH (12 KT):0
Visibility: greater than 7 mile(s):0
Sky conditions: mostly clear
Temperature: 82 F (28 C)
Dew Point: 77 F (25 C)
Relative Humidity: 83%
Pressure (altimeter): 29.9 in. Hg (1012 hPa)
ob: SKSP 220700Z 06012KT 9999 FEW017 28/25 A2990
cycle: 7

Station Type Date Time Source
SKSP TAF 2019/08/22 06:48 UTC NOAA

TAF SKSP 220430Z 2206/2306 08011KT 9999 FEW015 SCT100 TX32/2218Z TN26/2211Z

Example: see airport list